createdAt,value
2023-03-10T00:00:21.527Z,98625.53
2023-03-10T00:02:50.146Z,98650.84
2023-03-10T00:05:19.047Z,98653.75
2023-03-10T00:07:47.331Z,98650.00
2023-03-10T00:10:14.835Z,98654.59
2023-03-10T00:12:41.519Z,98653.34
2023-03-10T00:15:08.941Z,98658.34
2023-03-10T00:17:35.863Z,98660.22
2023-03-10T00:20:07.757Z,98650.19
2023-03-10T00:22:35.148Z,98642.03
2023-03-10T00:25:01.652Z,98635.78
2023-03-10T00:27:28.144Z,98633.06
2023-03-10T00:29:55.850Z,98636.41
2023-03-10T00:32:22.516Z,98640.16
2023-03-10T00:34:49.036Z,98643.72
2023-03-10T00:37:15.867Z,98644.53
2023-03-10T00:39:42.427Z,98643.28
2023-03-10T00:42:08.980Z,98641.63
2023-03-10T00:44:35.592Z,98643.28
2023-03-10T00:47:02.177Z,98635.34
2023-03-10T00:49:28.716Z,98638.91
2023-03-10T00:51:56.237Z,98639.94
2023-03-10T00:54:22.680Z,98640.16
2023-03-10T00:56:49.206Z,98638.50
2023-03-10T00:59:15.684Z,98637.03
2023-03-10T01:01:42.701Z,98636.19
2023-03-10T01:04:13.370Z,98639.97
2023-03-10T01:06:40.628Z,98644.34
2023-03-10T01:09:08.078Z,98647.50
2023-03-10T01:11:34.907Z,98650.00
2023-03-10T01:14:04.649Z,98644.13
2023-03-10T01:16:31.493Z,98645.81
2023-03-10T01:18:58.823Z,98648.53
2023-03-10T01:21:32.751Z,98647.69
2023-03-10T01:24:00.581Z,98642.25
2023-03-10T01:26:27.226Z,98637.66
2023-03-10T01:28:54.042Z,98642.03
2023-03-10T01:31:20.647Z,98637.66
2023-03-10T01:33:47.628Z,98635.78
2023-03-10T01:36:26.324Z,98623.84
2023-03-10T01:38:54.901Z,98621.97
2023-03-10T01:41:21.808Z,98606.50
2023-03-10T01:43:50.726Z,98616.31
2023-03-10T01:46:29.729Z,98620.09
2023-03-10T01:49:21.816Z,98614.66
2023-03-10T01:51:56.767Z,98600.22
2023-03-10T01:54:28.490Z,98604.84
2023-03-10T01:56:57.477Z,98607.56
2023-03-10T01:59:27.122Z,98610.47
2023-03-10T02:01:57.570Z,98602.31
2023-03-10T02:04:33.447Z,98612.56
2023-03-10T02:07:02.393Z,98600.88
2023-03-10T02:09:29.616Z,98605.47
2023-03-10T02:12:00.183Z,98600.44
2023-03-10T02:14:32.316Z,98586.84
2023-03-10T02:17:06.772Z,98589.34
2023-03-10T02:20:05.113Z,98590.81
2023-03-10T02:22:32.842Z,98584.53
2023-03-10T02:25:28.617Z,98586.63
2023-03-10T02:27:55.466Z,98591.66
2023-03-10T02:30:38.800Z,98593.09
2023-03-10T02:33:10.221Z,98589.97
2023-03-10T02:35:38.024Z,98583.50
2023-03-10T02:38:09.043Z,98578.06
2023-03-10T02:40:40.479Z,98574.50
2023-03-10T02:43:18.216Z,98582.44
2023-03-10T02:45:48.369Z,98581.41
2023-03-10T02:48:22.738Z,98577.00
2023-03-10T02:50:50.169Z,98571.56
2023-03-10T02:53:21.724Z,98567.59
2023-03-10T02:55:49.508Z,98574.69
2023-03-10T02:58:16.095Z,98565.94
2023-03-10T03:00:45.681Z,98557.16
2023-03-10T03:03:14.626Z,98543.56
2023-03-10T03:05:41.900Z,98544.00
2023-03-10T03:08:09.866Z,98544.22
2023-03-10T03:10:37.039Z,98541.50
2023-03-10T03:13:05.531Z,98548.81
2023-03-10T03:15:32.657Z,98538.78
2023-03-10T03:17:59.705Z,98538.16
2023-03-10T03:20:29.381Z,98543.59
2023-03-10T03:22:57.267Z,98535.44
2023-03-10T03:25:26.996Z,98536.88
2023-03-10T03:27:54.007Z,98537.94
2023-03-10T03:30:24.152Z,98543.78
2023-03-10T03:32:52.589Z,98537.28
2023-03-10T03:35:25.533Z,98541.47
2023-03-10T03:37:53.359Z,98537.06
2023-03-10T03:40:23.636Z,98536.88
2023-03-10T03:42:52.340Z,98537.69
2023-03-10T03:45:22.472Z,98534.97
2023-03-10T03:47:49.985Z,98535.59
2023-03-10T03:50:19.127Z,98538.31
2023-03-10T03:52:46.356Z,98533.31
2023-03-10T03:55:16.326Z,98530.38
2023-03-10T03:57:44.937Z,98534.97
2023-03-10T04:00:15.731Z,98527.88
2023-03-10T04:02:45.464Z,98530.59
2023-03-10T04:05:12.636Z,98533.72
2023-03-10T04:07:41.055Z,98535.38
2023-03-10T04:10:12.525Z,98534.53
2023-03-10T04:12:39.138Z,98533.50
2023-03-10T04:15:08.245Z,98531.22
2023-03-10T04:17:35.468Z,98533.94
2023-03-10T04:20:08.856Z,98530.81
2023-03-10T04:22:38.620Z,98527.03
2023-03-10T04:25:07.938Z,98535.41
2023-03-10T04:27:35.764Z,98522.66
2023-03-10T04:30:04.469Z,98517.22
2023-03-10T04:32:33.312Z,98523.50
2023-03-10T04:35:00.328Z,98524.53
2023-03-10T04:37:27.287Z,98525.59
2023-03-10T04:39:54.368Z,98527.25
2023-03-10T04:42:21.157Z,98518.28
2023-03-10T04:44:47.807Z,98519.09
2023-03-10T04:47:14.792Z,98506.34
2023-03-10T04:49:41.245Z,98518.66
2023-03-10T04:52:11.103Z,98514.06
2023-03-10T04:54:37.584Z,98511.13
2023-03-10T04:57:04.122Z,98505.69
2023-03-10T04:59:30.709Z,98498.16
2023-03-10T05:01:57.258Z,98490.44
2023-03-10T05:04:24.059Z,98498.81
2023-03-10T05:06:53.084Z,98491.28
2023-03-10T05:09:24.562Z,98496.50
2023-03-10T05:11:51.097Z,98500.88
2023-03-10T05:14:18.481Z,98497.53
2023-03-10T05:16:48.382Z,98492.09
2023-03-10T05:19:15.165Z,98494.81
2023-03-10T05:21:41.622Z,98495.44
2023-03-10T05:24:09.078Z,98489.38
2023-03-10T05:26:35.626Z,98490.44
2023-03-10T05:29:03.994Z,98490.22
2023-03-10T05:31:42.774Z,98486.47
2023-03-10T05:34:14.435Z,98482.28
2023-03-10T05:36:42.196Z,98489.38
2023-03-10T05:39:09.645Z,98482.69
2023-03-10T05:41:40.724Z,98482.69
2023-03-10T05:44:07.325Z,98484.34
2023-03-10T05:46:35.412Z,98492.28
2023-03-10T05:49:02.358Z,98488.97
2023-03-10T05:51:29.381Z,98484.78
2023-03-10T05:53:57.654Z,98492.31
2023-03-10T05:56:27.636Z,98488.16
2023-03-10T05:58:58.488Z,98496.31
2023-03-10T06:01:30.356Z,98495.25
2023-03-10T06:03:57.031Z,98492.53
2023-03-10T06:06:23.528Z,98491.50
2023-03-10T06:08:50.027Z,98486.06
2023-03-10T06:11:16.520Z,98492.09
2023-03-10T06:13:43.060Z,98489.19
2023-03-10T06:16:11.274Z,98493.78
2023-03-10T06:18:37.807Z,98491.69
2023-03-10T06:21:06.820Z,98488.97
2023-03-10T06:23:33.400Z,98494.63
2023-03-10T06:26:06.827Z,98497.53
2023-03-10T06:28:36.661Z,98495.44
2023-03-10T06:31:06.723Z,98502.53
2023-03-10T06:33:33.366Z,98504.22
2023-03-10T06:36:00.328Z,98504.44
2023-03-10T06:38:27.409Z,98509.03
2023-03-10T06:40:54.533Z,98510.69
2023-03-10T06:43:21.114Z,98512.38
2023-03-10T06:45:49.242Z,98512.38
2023-03-10T06:48:16.493Z,98505.06
2023-03-10T06:50:48.506Z,98507.34
2023-03-10T06:53:19.727Z,98517.38
2023-03-10T06:56:16.934Z,98518.22
2023-03-10T06:58:43.921Z,98516.31
2023-03-10T07:01:23.310Z,98519.03
2023-03-10T07:03:49.882Z,98523.66
2023-03-10T07:06:16.314Z,98535.34
2023-03-10T07:08:42.870Z,98536.41
2023-03-10T07:11:09.767Z,98536.19
2023-03-10T07:13:36.286Z,98532.63
2023-03-10T07:16:02.803Z,98532.41
2023-03-10T07:18:29.655Z,98532.22
2023-03-10T07:20:56.942Z,98535.13
2023-03-10T07:23:24.386Z,98539.75
2023-03-10T07:25:56.495Z,98536.19
2023-03-10T07:28:24.878Z,98539.75
2023-03-10T07:30:52.162Z,98542.47
2023-03-10T07:33:18.820Z,98546.00
2023-03-10T07:35:45.866Z,98554.38
2023-03-10T07:38:12.400Z,98553.31
2023-03-10T07:40:41.890Z,98565.03
2023-03-10T07:43:08.307Z,98553.97
2023-03-10T07:45:35.577Z,98550.44
2023-03-10T07:48:02.058Z,98552.28
2023-03-10T07:50:28.685Z,98557.09
2023-03-10T07:52:56.184Z,98556.03
2023-03-10T07:55:23.171Z,98557.09
2023-03-10T07:57:49.684Z,98558.75
2023-03-10T08:00:16.907Z,98567.75
2023-03-10T08:02:43.531Z,98561.31
2023-03-10T08:05:10.971Z,98570.28
2023-03-10T08:07:38.150Z,98567.34
2023-03-10T08:10:05.592Z,98579.72
2023-03-10T08:12:32.073Z,98573.63
2023-03-10T08:14:58.580Z,98575.50
2023-03-10T08:17:30.606Z,98592.66
2023-03-10T08:19:58.467Z,98601.69
2023-03-10T08:22:25.090Z,98596.03
2023-03-10T08:24:51.654Z,98594.34
2023-03-10T08:27:18.430Z,98599.97
2023-03-10T08:29:44.957Z,98598.31
2023-03-10T08:32:11.534Z,98593.72
2023-03-10T08:34:38.149Z,98591.81
2023-03-10T08:37:05.646Z,98594.34
2023-03-10T08:39:32.324Z,98593.72
2023-03-10T08:41:58.819Z,98596.41
2023-03-10T08:44:25.787Z,98592.47
2023-03-10T08:46:52.777Z,98585.97
2023-03-10T08:49:21.737Z,98593.31
2023-03-10T08:51:49.515Z,98592.66
2023-03-10T08:54:18.948Z,98586.81
2023-03-10T08:56:45.458Z,98584.09
2023-03-10T08:59:11.962Z,98596.66
2023-03-10T09:01:38.770Z,98587.88
2023-03-10T09:04:07.409Z,98583.25
2023-03-10T09:06:34.722Z,98593.91
2023-03-10T09:09:02.312Z,98589.31
2023-03-10T09:11:33.969Z,98584.09
2023-03-10T09:14:01.354Z,98578.22
2023-03-10T09:16:28.991Z,98587.22
2023-03-10T09:19:00.106Z,98584.72
2023-03-10T09:21:30.726Z,98580.34
2023-03-10T09:23:59.390Z,98596.66
2023-03-10T09:26:25.899Z,98580.13
2023-03-10T09:28:53.158Z,98583.88
2023-03-10T09:31:24.434Z,98583.06
2023-03-10T09:33:51.038Z,98584.72
2023-03-10T09:36:17.774Z,98576.56
2023-03-10T09:38:45.205Z,98580.13
2023-03-10T09:41:48.648Z,98582.22
2023-03-10T09:44:26.326Z,98576.78
2023-03-10T09:47:04.342Z,98574.91
2023-03-10T09:49:35.351Z,98572.19
2023-03-10T09:52:17.006Z,98581.16
2023-03-10T09:55:24.938Z,98563.41
2023-03-10T09:57:54.309Z,98572.38
2023-03-10T10:00:24.828Z,98578.66
2023-03-10T10:03:03.732Z,98573.22
2023-03-10T10:05:33.680Z,98575.50
2023-03-10T10:08:05.761Z,98582.84
2023-03-10T10:10:38.992Z,98583.66
2023-03-10T10:13:14.169Z,98580.72
2023-03-10T10:15:44.395Z,98582.41
2023-03-10T10:18:20.348Z,98579.91
2023-03-10T10:20:53.711Z,98588.88
2023-03-10T10:23:59.310Z,98590.34
2023-03-10T10:26:27.974Z,98587.63
2023-03-10T10:29:01.490Z,98584.69
2023-03-10T10:31:30.683Z,98584.69
2023-03-10T10:34:06.731Z,98596.41
2023-03-10T10:36:46.835Z,98597.84
2023-03-10T10:39:32.397Z,98613.53
2023-03-10T10:42:17.607Z,98604.56
2023-03-10T10:44:44.980Z,98594.50
2023-03-10T10:47:49.145Z,98600.16
2023-03-10T10:50:30.127Z,98597.00
2023-03-10T10:53:24.225Z,98594.28
2023-03-10T10:56:15.052Z,98595.56
2023-03-10T10:58:44.567Z,98592.84
2023-03-10T11:01:17.042Z,98592.63
2023-03-10T11:03:47.919Z,98599.94
2023-03-10T11:06:32.138Z,98597.22
2023-03-10T11:09:12.981Z,98592.63
2023-03-10T11:12:07.036Z,98608.50
2023-03-10T11:14:57.456Z,98602.25
2023-03-10T11:17:48.869Z,98593.25
2023-03-10T11:20:24.451Z,98595.13
2023-03-10T11:23:03.829Z,98598.06
2023-03-10T11:25:49.437Z,98587.19
2023-03-10T11:28:35.615Z,98580.69
2023-03-10T11:31:25.288Z,98576.09
2023-03-10T11:34:03.922Z,98574.22
2023-03-10T11:36:40.547Z,98569.81
2023-03-10T11:39:45.598Z,98566.66
2023-03-10T11:42:30.804Z,98568.34
2023-03-10T11:45:23.169Z,98562.06
2023-03-10T11:47:58.716Z,98563.72
2023-03-10T11:50:46.473Z,98554.53
2023-03-10T11:53:21.709Z,98546.38
2023-03-10T11:55:48.961Z,98544.69
2023-03-10T11:58:24.060Z,98539.03
2023-03-10T12:00:53.731Z,98533.59
2023-03-10T12:03:33.661Z,98533.59
2023-03-10T12:06:01.546Z,98528.16
2023-03-10T12:08:34.502Z,98524.81
2023-03-10T12:11:04.626Z,98510.41
2023-03-10T12:13:42.921Z,98511.00
2023-03-10T12:16:17.580Z,98516.66
2023-03-10T12:18:44.241Z,98513.94
2023-03-10T12:21:20.532Z,98513.94
2023-03-10T12:23:49.835Z,98512.69
2023-03-10T12:26:38.842Z,98510.41
2023-03-10T12:29:20.292Z,98508.50
2023-03-10T12:31:52.671Z,98506.63
2023-03-10T12:34:24.018Z,98497.63
2023-03-10T12:36:53.115Z,98497.63
2023-03-10T12:39:28.289Z,98513.94
2023-03-10T12:41:56.819Z,98503.06
2023-03-10T12:45:03.760Z,98509.34
2023-03-10T12:47:55.458Z,98506.84
2023-03-10T12:50:48.182Z,98502.03
2023-03-10T12:53:28.518Z,98497.19
2023-03-10T12:56:13.392Z,98504.31
2023-03-10T12:58:52.859Z,98499.31
2023-03-10T13:01:23.605Z,98490.53
2023-03-10T13:03:53.231Z,98486.53
2023-03-10T13:06:24.555Z,98486.53
2023-03-10T13:09:23.108Z,98491.16
2023-03-10T13:12:02.943Z,98496.38
2023-03-10T13:14:41.034Z,98480.88
2023-03-10T13:17:29.467Z,98482.78
2023-03-10T13:20:11.456Z,98502.63
2023-03-10T13:22:38.315Z,98498.88
2023-03-10T13:25:14.134Z,98507.03
2023-03-10T13:27:40.637Z,98515.78
2023-03-10T13:30:26.465Z,98516.22
2023-03-10T13:32:55.442Z,98520.63
2023-03-10T13:35:38.306Z,98513.28
2023-03-10T13:38:07.634Z,98524.41
2023-03-10T13:40:34.437Z,98528.34
2023-03-10T13:43:01.031Z,98531.69
2023-03-10T13:45:33.951Z,98541.94
2023-03-10T13:48:03.880Z,98547.59
2023-03-10T13:50:30.687Z,98547.81
2023-03-10T13:52:59.619Z,98560.59
2023-03-10T13:55:29.140Z,98570.84
2023-03-10T13:57:56.257Z,98572.28
2023-03-10T14:00:24.729Z,98578.78
2023-03-10T14:02:52.981Z,98592.16
2023-03-10T14:05:43.590Z,98597.81
2023-03-10T14:08:28.737Z,98613.31
2023-03-10T14:11:22.054Z,98637.56
2023-03-10T14:13:48.666Z,98640.28
2023-03-10T14:16:15.485Z,98642.78
2023-03-10T14:18:43.463Z,98642.78
2023-03-10T14:21:24.703Z,98662.66
2023-03-10T14:23:51.842Z,98660.16
2023-03-10T14:26:18.326Z,98677.09
2023-03-10T14:28:44.888Z,98691.53
2023-03-10T14:31:37.657Z,98688.81
2023-03-10T14:34:04.166Z,98699.91
2023-03-10T14:36:30.621Z,98733.59
2023-03-10T14:38:57.191Z,98753.66
2023-03-10T14:41:25.231Z,98778.97
2023-03-10T14:43:52.134Z,98789.84
2023-03-10T14:46:18.988Z,98814.13
2023-03-10T14:48:45.989Z,98830.22
2023-03-10T14:51:25.688Z,98850.09
2023-03-10T14:53:59.280Z,98867.47
2023-03-10T14:56:25.767Z,98865.38
2023-03-10T14:58:54.536Z,98889.03
2023-03-10T15:01:21.602Z,98885.47
2023-03-10T15:03:49.354Z,98895.50
2023-03-10T15:06:18.599Z,98907.44
2023-03-10T15:08:45.064Z,98911.81
2023-03-10T15:11:11.904Z,98920.81
2023-03-10T15:13:39.059Z,98923.53
2023-03-10T15:16:06.413Z,98945.09
2023-03-10T15:18:32.988Z,98948.22
2023-03-10T15:21:00.449Z,98945.50
2023-03-10T15:23:28.424Z,98973.53
2023-03-10T15:25:56.102Z,99001.78
2023-03-10T15:28:22.699Z,99017.47
2023-03-10T15:30:49.701Z,99022.06
2023-03-10T15:33:16.551Z,99040.06
2023-03-10T15:35:43.929Z,99057.44
2023-03-10T15:38:13.677Z,99067.47
2023-03-10T15:40:40.171Z,99079.41
2023-03-10T15:43:06.894Z,99111.63
2023-03-10T15:45:33.567Z,99137.97
2023-03-10T15:48:00.090Z,99141.53
2023-03-10T15:50:27.021Z,99142.78
2023-03-10T15:52:58.528Z,99154.72
2023-03-10T15:55:26.600Z,99189.44
2023-03-10T15:57:53.321Z,99220.19
2023-03-10T16:00:22.263Z,99226.66
2023-03-10T16:02:49.756Z,99238.59
2023-03-10T16:05:17.779Z,99265.78
2023-03-10T16:07:44.412Z,99290.25
2023-03-10T16:10:13.256Z,99301.13
2023-03-10T16:12:39.854Z,99315.59
2023-03-10T16:15:06.845Z,99335.25
2023-03-10T16:17:33.305Z,99359.75
2023-03-10T16:20:02.099Z,99373.72
2023-03-10T16:22:28.892Z,99387.53
2023-03-10T16:24:55.661Z,99416.22
2023-03-10T16:27:22.255Z,99402.59
2023-03-10T16:29:48.737Z,99452.59
2023-03-10T16:32:17.578Z,99471.44
2023-03-10T16:34:44.078Z,99479.59
2023-03-10T16:37:10.598Z,99477.09
2023-03-10T16:39:37.121Z,99498.84
2023-03-10T16:42:03.669Z,99511.16
2023-03-10T16:44:30.223Z,99525.78
2023-03-10T16:46:56.707Z,99533.94
2023-03-10T16:49:23.190Z,99547.34
2023-03-10T16:51:49.722Z,99554.66
2023-03-10T16:54:19.031Z,99558.22
2023-03-10T16:56:50.479Z,99555.69
2023-03-10T16:59:22.268Z,99553.81
2023-03-10T17:01:50.093Z,99590.00
2023-03-10T17:04:17.346Z,99624.34
2023-03-10T17:06:45.354Z,99625.00
2023-03-10T17:09:13.928Z,99626.03
2023-03-10T17:11:46.496Z,99638.13
2023-03-10T17:14:15.931Z,99647.13
2023-03-10T17:16:43.923Z,99660.72
2023-03-10T17:19:16.345Z,99667.38
2023-03-10T17:21:45.960Z,99680.34
2023-03-10T17:24:14.517Z,99687.84
2023-03-10T17:26:41.047Z,99697.88
2023-03-10T17:29:07.956Z,99703.97
2023-03-10T17:31:34.678Z,99720.09
2023-03-10T17:34:04.306Z,99732.84
2023-03-10T17:36:31.121Z,99749.53
2023-03-10T17:38:59.879Z,99756.47
2023-03-10T17:41:27.831Z,99774.69
2023-03-10T17:43:55.358Z,99788.09
2023-03-10T17:46:25.034Z,99792.69
2023-03-10T17:48:52.009Z,99813.41
2023-03-10T17:51:21.222Z,99822.22
2023-03-10T17:53:48.119Z,99835.34
2023-03-10T17:56:16.299Z,99836.19
2023-03-10T17:58:43.604Z,99857.97
2023-03-10T18:01:20.987Z,99867.34
2023-03-10T18:03:48.450Z,99872.78
2023-03-10T18:06:24.760Z,99888.91
2023-03-10T18:08:53.220Z,99898.75
2023-03-10T18:11:22.006Z,99907.94
2023-03-10T18:13:48.841Z,99909.16
2023-03-10T18:16:21.495Z,99918.34
2023-03-10T18:18:48.061Z,99932.59
2023-03-10T18:21:16.650Z,99940.94
2023-03-10T18:23:43.799Z,99954.53
2023-03-10T18:26:12.938Z,99958.94
2023-03-10T18:28:40.222Z,99969.66
2023-03-10T18:31:09.554Z,99976.13
2023-03-10T18:33:36.500Z,99975.28
2023-03-10T18:36:06.490Z,99978.00
2023-03-10T18:38:33.670Z,99990.06
2023-03-10T18:41:02.107Z,99997.53
2023-03-10T18:43:29.314Z,100009.78
2023-03-10T18:45:56.453Z,100009.78
2023-03-10T18:48:27.008Z,100010.63
2023-03-10T18:50:54.561Z,100018.31
2023-03-10T18:53:23.034Z,100017.44
2023-03-10T18:55:49.491Z,100021.16
2023-03-10T18:58:15.967Z,100030.19
2023-03-10T19:00:42.647Z,100039.88
2023-03-10T19:03:10.556Z,100050.75
2023-03-10T19:05:37.590Z,100058.06
2023-03-10T19:08:04.092Z,100049.22
2023-03-10T19:10:30.617Z,100065.38
2023-03-10T19:12:57.854Z,100078.97
2023-03-10T19:15:24.473Z,100074.72
2023-03-10T19:17:50.955Z,100082.38
2023-03-10T19:20:17.684Z,100089.50
2023-03-10T19:22:49.517Z,100097.47
2023-03-10T19:25:16.619Z,100103.94
2023-03-10T19:27:43.329Z,100106.00
2023-03-10T19:30:15.830Z,100122.31
2023-03-10T19:32:43.385Z,100131.50
2023-03-10T19:35:10.764Z,100129.94
2023-03-10T19:37:39.050Z,100141.00
2023-03-10T19:40:08.354Z,100152.56
2023-03-10T19:42:36.835Z,100151.56
2023-03-10T19:45:03.706Z,100157.00
2023-03-10T19:47:31.540Z,100163.44
2023-03-10T19:49:58.130Z,100177.22
2023-03-10T19:52:25.222Z,100168.53
2023-03-10T19:54:51.989Z,100186.34
2023-03-10T19:57:18.514Z,100183.50
2023-03-10T19:59:44.998Z,100195.41
2023-03-10T20:02:16.765Z,100197.22
2023-03-10T20:04:44.400Z,100192.81
2023-03-10T20:07:12.171Z,100188.09
2023-03-10T20:09:38.719Z,100199.94
2023-03-10T20:12:05.488Z,100206.41
2023-03-10T20:14:32.158Z,100202.66
2023-03-10T20:16:58.827Z,100212.22
2023-03-10T20:19:25.263Z,100218.50
2023-03-10T20:21:51.975Z,100223.09
2023-03-10T20:24:20.657Z,100217.47
2023-03-10T20:26:48.605Z,100222.06
2023-03-10T20:29:15.282Z,100228.53
2023-03-10T20:31:41.983Z,100239.41
2023-03-10T20:34:16.795Z,100241.09
2023-03-10T20:36:43.333Z,100249.44
2023-03-10T20:39:09.879Z,100259.28
2023-03-10T20:41:36.319Z,100262.00
2023-03-10T20:44:03.062Z,100270.16
2023-03-10T20:46:29.560Z,100268.28
2023-03-10T20:48:56.014Z,100269.13
2023-03-10T20:51:23.295Z,100279.00
2023-03-10T20:53:51.722Z,100283.59
2023-03-10T20:56:18.219Z,100289.03
2023-03-10T20:58:44.762Z,100292.75
2023-03-10T21:01:20.060Z,100290.91
2023-03-10T21:03:47.109Z,100303.66
2023-03-10T21:06:13.663Z,100306.38
2023-03-10T21:08:40.210Z,100311.81
2023-03-10T21:11:06.706Z,100314.19
2023-03-10T21:13:33.148Z,100316.38
2023-03-10T21:15:59.640Z,100319.47
2023-03-10T21:18:26.134Z,100328.63
2023-03-10T21:20:52.652Z,100326.94
2023-03-10T21:23:19.238Z,100335.94
2023-03-10T21:25:45.724Z,100341.38
2023-03-10T21:28:12.188Z,100344.28
2023-03-10T21:30:38.816Z,100357.03
2023-03-10T21:33:05.303Z,100357.03
2023-03-10T21:35:34.226Z,100370.28
2023-03-10T21:38:00.944Z,100373.16
2023-03-10T21:40:27.871Z,100374.00
2023-03-10T21:42:54.726Z,100378.78
2023-03-10T21:45:23.201Z,100385.75
2023-03-10T21:47:49.791Z,100390.31
2023-03-10T21:50:17.172Z,100398.31
2023-03-10T21:52:43.872Z,100399.50
2023-03-10T21:55:21.435Z,100413.28
2023-03-10T21:57:48.271Z,100414.28
2023-03-10T22:00:15.724Z,100409.88
2023-03-10T22:02:42.320Z,100422.44
2023-03-10T22:05:11.498Z,100426.88
2023-03-10T22:07:38.634Z,100429.59
2023-03-10T22:10:06.793Z,100436.91
2023-03-10T22:12:33.868Z,100442.69
2023-03-10T22:15:00.583Z,100440.47
2023-03-10T22:17:28.154Z,100447.78
2023-03-10T22:19:55.834Z,100450.66
2023-03-10T22:22:23.082Z,100453.72
2023-03-10T22:24:50.154Z,100457.28
2023-03-10T22:27:17.039Z,100463.75
2023-03-10T22:29:43.674Z,100469.19
2023-03-10T22:32:10.681Z,100470.22
2023-03-10T22:34:37.293Z,100471.91
2023-03-10T22:37:03.897Z,100474.63
2023-03-10T22:39:30.351Z,100478.03
2023-03-10T22:41:56.781Z,100482.09
2023-03-10T22:44:23.548Z,100476.16
2023-03-10T22:46:50.121Z,100489.56
2023-03-10T22:49:16.638Z,100494.00
2023-03-10T22:51:43.100Z,100497.72
2023-03-10T22:54:09.579Z,100503.69
2023-03-10T22:56:36.126Z,100503.69
2023-03-10T22:59:03.889Z,100504.38
2023-03-10T23:01:30.689Z,100514.75
2023-03-10T23:03:57.389Z,100512.03
2023-03-10T23:06:26.259Z,100515.94
2023-03-10T23:08:52.806Z,100524.75
2023-03-10T23:11:19.402Z,100530.03
2023-03-10T23:13:45.885Z,100520.50
2023-03-10T23:16:12.466Z,100521.19
2023-03-10T23:18:39.247Z,100525.94
2023-03-10T23:21:06.798Z,100521.53
2023-03-10T23:23:33.300Z,100530.53
2023-03-10T23:25:59.818Z,100534.97
2023-03-10T23:28:26.314Z,100530.38
2023-03-10T23:30:54.226Z,100541.09
2023-03-10T23:33:23.733Z,100541.25
2023-03-10T23:35:53.661Z,100547.38
2023-03-10T23:38:22.383Z,100553.81
2023-03-10T23:40:50.586Z,100559.25
2023-03-10T23:43:17.650Z,100567.41
2023-03-10T23:45:44.286Z,100576.59
2023-03-10T23:48:15.908Z,100577.63
2023-03-10T23:50:44.561Z,100573.03
2023-03-10T23:53:12.730Z,100576.75
2023-03-10T23:55:42.901Z,100580.50
2023-03-10T23:58:11.008Z,100575.91
